Time;durP1;ratioP1;P1;durP2;ratioP2;P2;SDS_P1;SDS_P2;PMS_P1;PMS_P2;Temp;Humidity;BMP_temperature;BMP_pressure;BME280_temperature;BME280_humidity;BME280_pressure;Samples;Min_cycle;Max_cycle;Signal;HPM_P1;HPM_P2
2023/07/23 00:00:26;;;;;;;10.23;5.30;;;;;;;17.49;60.29;99197.53;5073239;28;20032;-57
2023/07/23 00:02:52;;;;;;;12.48;5.40;;;;;;;17.44;60.23;99183.69;5076709;28;20036;-59
2023/07/23 00:05:17;;;;;;;8.38;5.32;;;;;;;17.49;60.13;99191.25;5094986;28;20028;-60
2023/07/23 00:07:43;;;;;;;14.55;6.43;;;;;;;17.33;60.27;99166.03;5095063;28;20043;-60
2023/07/23 00:10:09;;;;;;;12.13;5.40;;;;;;;17.26;60.28;99161.56;5094657;28;20356;-60
2023/07/23 00:12:36;;;;;;;13.70;6.13;;;;;;;17.46;60.19;99197.03;5094703;28;20043;-60
2023/07/23 00:15:03;;;;;;;15.38;7.38;;;;;;;17.40;60.29;99193.19;5094592;28;20121;-59
2023/07/23 00:17:33;;;;;;;9.55;5.82;;;;;;;17.41;60.61;99194.06;5093156;28;20061;-59
2023/07/23 00:19:58;;;;;;;12.90;5.30;;;;;;;17.39;61.07;99196.09;5075593;28;20119;-61
2023/07/23 00:22:25;;;;;;;11.75;5.97;;;;;;;17.35;60.76;99196.44;5074177;28;20035;-60
2023/07/23 00:24:56;;;;;;;10.93;7.47;;;;;;;17.29;60.88;99185.53;5074078;28;20135;-63
2023/07/23 00:27:23;;;;;;;11.95;7.40;;;;;;;17.27;61.19;99196.53;5074464;28;20449;-58
2023/07/23 00:29:48;;;;;;;11.32;5.80;;;;;;;17.19;61.51;99188.50;5074413;28;20020;-59
2023/07/23 00:32:14;;;;;;;10.05;6.03;;;;;;;17.15;61.90;99198.84;5073715;28;20025;-58
2023/07/23 00:34:40;;;;;;;9.15;5.15;;;;;;;17.02;62.21;99185.09;5074647;28;20020;-59
2023/07/23 00:37:06;;;;;;;12.32;5.65;;;;;;;17.05;62.08;99187.44;5074053;28;20107;-61
2023/07/23 00:39:31;;;;;;;11.93;6.03;;;;;;;17.03;62.30;99187.59;5074954;28;20135;-60
2023/07/23 00:41:57;;;;;;;11.07;5.75;;;;;;;17.01;62.47;99192.34;5072555;28;20112;-61
2023/07/23 00:44:22;;;;;;;12.98;5.75;;;;;;;17.00;62.35;99187.97;5073638;28;20464;-60
2023/07/23 00:46:48;;;;;;;9.38;6.45;;;;;;;17.01;62.56;99189.66;5074173;28;20352;-59
2023/07/23 00:49:13;;;;;;;9.73;6.05;;;;;;;16.83;62.61;99159.34;5073669;28;20043;-60
2023/07/23 00:51:40;;;;;;;8.50;6.43;;;;;;;17.02;62.25;99185.94;5077015;28;20496;-61
2023/07/23 00:54:06;;;;;;;9.82;5.85;;;;;;;17.04;62.52;99189.28;5092753;28;20039;-60
2023/07/23 00:56:35;;;;;;;8.65;6.18;;;;;;;17.04;62.16;99178.47;5092666;28;20032;-58
2023/07/23 00:59:01;;;;;;;12.10;5.75;;;;;;;17.07;62.29;99183.50;5091891;28;20035;-59
2023/07/23 01:01:27;;;;;;;9.70;5.90;;;;;;;17.08;62.15;99187.06;5092332;28;20365;-60
2023/07/23 01:03:52;;;;;;;10.88;5.60;;;;;;;17.12;62.31;99182.13;5092801;28;20036;-58
2023/07/23 01:06:19;;;;;;;10.68;5.68;;;;;;;17.13;62.20;99181.13;5093179;28;20028;-60
2023/07/23 01:08:45;;;;;;;9.25;4.82;;;;;;;17.15;62.08;99190.72;5093509;28;20403;-59
2023/07/23 01:11:11;;;;;;;12.10;4.82;;;;;;;17.11;62.15;99183.13;5092912;28;20065;-59
2023/07/23 01:13:38;;;;;;;9.40;6.20;;;;;;;17.16;61.79;99191.56;5091248;28;20031;-59
2023/07/23 01:16:07;;;;;;;12.10;6.25;;;;;;;17.18;61.76;99200.34;5088604;28;20111;-58
2023/07/23 01:18:36;;;;;;;7.32;5.00;;;;;;;17.16;61.63;99186.97;5093344;28;20043;-57
2023/07/23 01:21:02;;;;;;;6.88;4.70;;;;;;;17.15;61.52;99195.31;5088231;28;20112;-59
2023/07/23 01:23:27;;;;;;;7.65;5.45;;;;;;;17.15;61.63;99189.91;5072764;28;20135;-57
2023/07/23 01:25:53;;;;;;;9.60;5.88;;;;;;;17.12;61.50;99190.22;5072368;28;20037;-60
2023/07/23 01:28:18;;;;;;;8.40;4.95;;;;;;;17.13;61.49;99195.47;5072983;28;20029;-59
2023/07/23 01:30:45;;;;;;;9.25;5.35;;;;;;;17.08;61.42;99189.78;5071888;28;20474;-60
2023/07/23 01:33:12;;;;;;;11.40;4.95;;;;;;;17.07;61.21;99191.63;5072724;28;20067;-60
2023/07/23 01:35:38;;;;;;;9.88;5.25;;;;;;;17.16;61.04;99194.28;5074002;28;20115;-59
2023/07/23 01:38:04;;;;;;;11.18;6.22;;;;;;;16.97;60.95;99155.00;5072793;28;20032;-60
2023/07/23 01:40:29;;;;;;;13.95;5.80;;;;;;;17.22;60.97;99193.53;5071924;28;20078;-59
2023/07/23 01:42:56;;;;;;;9.70;5.40;;;;;;;17.23;61.06;99203.34;5084248;28;20040;-54
2023/07/23 01:45:21;;;;;;;12.48;5.30;;;;;;;17.28;60.78;99210.91;5092319;28;20455;-58
2023/07/23 01:47:47;;;;;;;9.05;5.13;;;;;;;17.31;60.83;99194.31;5071657;28;20032;-61
2023/07/23 01:50:12;;;;;;;11.27;5.97;;;;;;;17.30;60.34;99184.50;5072584;28;20113;-59
2023/07/23 01:52:38;;;;;;;10.68;5.43;;;;;;;17.40;60.45;99195.06;5072834;28;20021;-60
2023/07/23 01:55:04;;;;;;;8.68;4.93;;;;;;;17.40;60.40;99201.31;5072875;28;20028;-60
2023/07/23 01:57:32;;;;;;;10.55;4.78;;;;;;;17.42;60.36;99195.72;5072444;28;20052;-58
2023/07/23 01:59:57;;;;;;;13.43;4.70;;;;;;;17.46;60.34;99188.91;5087342;28;20044;-59
2023/07/23 02:02:23;;;;;;;9.63;4.93;;;;;;;17.44;60.08;99193.69;5093093;28;20028;-58
2023/07/23 02:04:48;;;;;;;9.73;4.97;;;;;;;17.46;59.99;99200.56;5092831;28;20024;-56
2023/07/23 02:07:14;;;;;;;7.10;4.78;;;;;;;17.49;59.90;99196.66;5092268;28;20024;-60
2023/07/23 02:09:40;;;;;;;7.32;5.03;;;;;;;17.34;59.33;99165.00;5090808;28;20044;-59
2023/07/23 02:12:06;;;;;;;9.25;4.57;;;;;;;17.52;59.23;99184.66;5092836;28;20437;-58
2023/07/23 02:14:32;;;;;;;8.70;4.93;;;;;;;17.58;59.08;99192.84;5091706;28;20121;-60
2023/07/23 02:16:58;;;;;;;8.45;4.40;;;;;;;17.61;59.14;99197.06;5091544;28;20114;-57
2023/07/23 02:19:24;;;;;;;6.45;4.50;;;;;;;17.44;58.79;99153.09;5091678;28;20111;-59
2023/07/23 02:21:49;;;;;;;7.25;4.43;;;;;;;17.47;58.94;99161.66;5092692;28;20024;-59
2023/07/23 02:24:15;;;;;;;10.95;4.70;;;;;;;17.71;58.32;99189.47;5080672;28;20119;-59
2023/07/23 02:26:40;;;;;;;7.28;4.53;;;;;;;17.74;58.12;99191.00;5076240;28;20471;-59
2023/07/23 02:29:06;;;;;;;10.05;4.47;;;;;;;17.70;58.13;99176.16;5075155;28;20158;-57
2023/07/23 02:31:32;;;;;;;9.05;4.53;;;;;;;17.84;58.07;99194.25;5076252;28;20024;-58
2023/07/23 02:33:58;;;;;;;9.85;4.40;;;;;;;17.84;57.89;99185.31;5076770;28;20526;-58
2023/07/23 02:36:23;;;;;;;9.75;4.53;;;;;;;17.89;57.48;99178.31;5076353;28;20025;-57
2023/07/23 02:38:49;;;;;;;9.75;4.75;;;;;;;17.93;57.51;99182.31;5076228;28;20067;-59
2023/07/23 02:41:14;;;;;;;7.18;4.50;;;;;;;17.97;57.48;99181.94;5075637;28;20056;-58
2023/07/23 02:43:40;;;;;;;7.85;4.55;;;;;;;18.02;57.28;99183.09;5074506;28;20037;-58
2023/07/23 02:46:05;;;;;;;10.50;4.70;;;;;;;18.10;57.13;99192.13;5075539;28;20036;-59
2023/07/23 02:48:30;;;;;;;10.98;4.97;;;;;;;18.11;57.07;99183.81;5074851;28;20376;-59
2023/07/23 02:50:56;;;;;;;8.32;4.47;;;;;;;18.21;57.11;99197.91;5075769;28;20055;-58
2023/07/23 02:53:21;;;;;;;8.65;4.50;;;;;;;18.28;56.85;99202.56;5075306;28;20064;-59
2023/07/23 02:55:47;;;;;;;8.85;5.47;;;;;;;18.30;56.79;99189.66;5075306;28;20063;-58
2023/07/23 02:58:12;;;;;;;11.45;4.72;;;;;;;18.13;56.41;99146.56;5075217;28;20398;-60
2023/07/23 03:00:41;;;;;;;7.57;4.30;;;;;;;18.45;55.95;99185.06;5074833;28;20445;-58
2023/07/23 03:03:07;;;;;;;12.65;4.50;;;;;;;18.56;56.15;99193.69;5075397;28;20036;-60
2023/07/23 03:05:34;;;;;;;7.95;4.65;;;;;;;18.70;55.78;99189.28;5075748;28;20425;-60
2023/07/23 03:08:00;;;;;;;12.73;4.95;;;;;;;18.67;55.07;99160.69;5076121;28;20032;-60
2023/07/23 03:10:26;;;;;;;11.02;5.65;;;;;;;18.94;54.80;99188.91;5075893;28;20051;-61
2023/07/23 03:12:51;;;;;;;8.52;4.80;;;;;;;19.10;54.46;99191.56;5075437;28;20368;-58
2023/07/23 03:15:17;;;;;;;8.25;4.30;;;;;;;19.23;54.48;99188.97;5086539;28;20470;-59
2023/07/23 03:17:42;;;;;;;9.10;5.10;;;;;;;19.36;53.82;99186.34;5095394;28;20032;-57
2023/07/23 03:20:10;;;;;;;14.02;7.65;;;;;;;19.47;53.15;99186.84;5095649;28;20032;-57
2023/07/23 03:22:39;;;;;;;11.90;5.95;;;;;;;19.57;53.06;99187.34;5094811;28;20055;-58
2023/07/23 03:25:04;;;;;;;12.15;5.20;;;;;;;19.62;52.08;99179.44;5095564;28;20063;-57
2023/07/23 03:27:31;;;;;;;15.82;5.07;;;;;;;19.71;52.16;99174.69;5094888;28;20043;-58
2023/07/23 03:29:56;;;;;;;9.85;5.68;;;;;;;19.80;51.87;99167.22;5094915;28;20032;-58
2023/07/23 03:32:23;;;;;;;10.63;6.15;;;;;;;20.20;50.85;99186.44;5095426;28;20042;-55
2023/07/23 03:34:48;;;;;;;12.05;4.93;;;;;;;20.65;50.05;99190.56;5093416;28;20351;-58
2023/07/23 03:37:14;;;;;;;10.02;5.05;;;;;;;21.10;49.20;99194.66;5095304;28;20028;-58
2023/07/23 03:39:39;;;;;;;7.50;4.40;;;;;;;21.76;47.73;99179.34;5095288;28;20032;-59
2023/07/23 03:42:06;;;;;;;6.68;4.35;;;;;;;22.54;45.41;99182.19;5091747;28;20099;-58
2023/07/23 03:44:32;;;;;;;7.43;4.45;;;;;;;23.08;43.88;99175.31;5095026;28;20043;-60
2023/07/23 03:47:03;;;;;;;5.50;3.83;;;;;;;23.69;42.67;99182.19;5094697;28;20024;-58
2023/07/23 03:49:29;;;;;;;8.05;4.55;;;;;;;24.02;41.38;99172.78;5095506;28;20462;-60
2023/07/23 03:51:55;;;;;;;5.68;4.13;;;;;;;24.04;41.28;99162.47;5095004;28;20055;-58
2023/07/23 03:54:20;;;;;;;8.65;4.03;;;;;;;24.08;41.33;99170.00;5094872;28;20060;-59
2023/07/23 03:56:46;;;;;;;6.95;3.70;;;;;;;24.06;41.48;99187.69;5077405;28;20060;-59
2023/07/23 03:59:11;;;;;;;10.23;3.97;;;;;;;23.96;41.10;99169.03;5095043;28;20040;-60
2023/07/23 04:01:37;;;;;;;7.55;3.55;;;;;;;23.78;41.39;99148.00;5094897;28;20031;-60
2023/07/23 04:04:02;;;;;;;6.03;3.50;;;;;;;23.98;41.26;99175.13;5094606;28;20035;-59
2023/07/23 04:06:28;;;;;;;7.40;3.97;;;;;;;24.17;41.18;99177.88;5094454;28;20032;-60
2023/07/23 04:08:53;;;;;;;9.80;3.65;;;;;;;24.43;40.19;99176.72;5094620;28;20047;-59
2023/07/23 04:11:19;;;;;;;6.55;3.72;;;;;;;24.93;39.24;99175.56;5092828;28;20328;-58
2023/07/23 04:13:44;;;;;;;6.93;3.22;;;;;;;25.54;37.97;99169.13;5093894;28;20340;-58
2023/07/23 04:16:11;;;;;;;7.15;3.83;;;;;;;26.05;36.56;99179.56;5094497;28;20039;-60
2023/07/23 04:18:51;;;;;;;5.57;3.17;;;;;;;26.60;36.43;99178.19;5096389;28;20024;-59
2023/07/23 04:21:18;;;;;;;6.32;3.60;;;;;;;27.40;34.21;99180.13;5094179;28;20043;-60
2023/07/23 04:23:48;;;;;;;7.13;3.40;;;;;;;28.91;32.30;99177.38;5094331;28;20027;-60
2023/07/23 04:26:15;;;;;;;5.85;3.10;;;;;;;30.53;29.18;99171.72;5092625;28;20028;-59
2023/07/23 04:28:40;;;;;;;14.68;3.30;;;;;;;32.18;26.63;99171.63;5094352;28;20338;-62
2023/07/23 04:31:06;;;;;;;5.90;3.00;;;;;;;32.29;26.07;99171.56;5094506;28;20032;-60
2023/07/23 04:33:31;;;;;;;9.93;2.65;;;;;;;31.83;26.63;99167.06;5094562;28;20107;-59
2023/07/23 04:35:57;;;;;;;7.90;2.78;;;;;;;31.44;27.36;99168.50;5094335;28;20478;-59
2023/07/23 04:38:22;;;;;;;5.72;2.60;;;;;;;31.58;26.85;99168.75;5089513;28;20038;-58
2023/07/23 04:40:48;;;;;;;5.68;2.70;;;;;;;32.82;25.22;99182.09;5093747;28;20413;-61
2023/07/23 04:43:14;;;;;;;4.75;2.70;;;;;;;34.23;23.51;99179.66;5093787;28;20032;-60
2023/07/23 04:45:39;;;;;;;3.50;2.40;;;;;;;35.67;21.27;99163.81;5094029;28;20031;-60
2023/07/23 04:48:05;;;;;;;4.22;2.42;;;;;;;37.01;19.79;99172.09;5094105;28;20024;-60
2023/07/23 04:50:30;;;;;;;6.43;2.95;;;;;;;37.88;18.73;99172.91;5094163;28;20024;-61
2023/07/23 04:52:56;;;;;;;3.45;2.30;;;;;;;38.37;18.29;99177.66;5093992;28;20093;-59
2023/07/23 04:55:21;;;;;;;4.43;2.58;;;;;;;38.84;17.93;99179.84;5094131;28;20475;-59
2023/07/23 04:57:47;;;;;;;4.47;2.72;;;;;;;39.44;17.33;99171.72;5092088;28;20116;-59
2023/07/23 05:00:13;;;;;;;7.38;2.80;;;;;;;40.15;16.35;99178.66;5094102;28;20035;-61
2023/07/23 05:02:38;;;;;;;4.47;2.80;;;;;;;40.92;15.64;99168.38;5093833;28;20058;-64
2023/07/23 05:05:04;;;;;;;5.85;3.10;;;;;;;41.12;15.83;99172.34;5090916;28;20036;-64
2023/07/23 05:07:31;;;;;;;8.23;3.13;;;;;;;41.02;16.02;99165.16;5093289;28;20032;-66
2023/07/23 05:09:56;;;;;;;7.70;3.40;;;;;;;41.15;15.72;99165.19;5093778;28;20135;-65
2023/07/23 05:12:22;;;;;;;8.15;3.40;;;;;;;41.55;15.05;99161.78;5093188;28;20077;-66
2023/07/23 05:14:48;;;;;;;8.10;2.90;;;;;;;41.70;15.01;99145.44;5093079;28;20028;-64
2023/07/23 05:17:14;;;;;;;5.80;3.15;;;;;;;42.16;14.46;99165.00;5093689;28;20036;-66
2023/07/23 05:19:39;;;;;;;7.53;3.15;;;;;;;42.42;14.43;99147.69;5085972;28;20024;-64
2023/07/23 05:22:06;;;;;;;8.02;3.20;;;;;;;42.82;13.65;99142.44;5092601;28;20042;-65
2023/07/23 05:24:31;;;;;;;6.22;3.00;;;;;;;43.38;13.44;99163.28;5093433;28;20483;-66
2023/07/23 05:26:58;;;;;;;3.75;2.83;;;;;;;43.93;13.05;99159.84;5093729;28;20073;-65
2023/07/23 05:29:23;;;;;;;4.50;2.85;;;;;;;44.11;12.96;99160.28;5093465;28;20517;-64
2023/07/23 05:31:49;;;;;;;7.70;3.00;;;;;;;44.45;12.92;99158.63;5080551;28;20028;-64
2023/07/23 05:34:16;;;;;;;3.83;2.85;;;;;;;44.82;12.61;99156.56;5073630;28;20536;-65
2023/07/23 05:36:42;;;;;;;7.00;3.17;;;;;;;44.89;12.59;99131.31;5073238;28;20029;-66
2023/07/23 05:39:09;;;;;;;6.35;3.28;;;;;;;45.62;11.79;99155.25;5073285;28;20112;-66
2023/07/23 05:41:35;;;;;;;7.47;3.15;;;;;;;46.30;11.53;99145.00;5073458;28;20071;-65
2023/07/23 05:44:00;;;;;;;4.30;2.90;;;;;;;45.93;11.75;99142.81;5072811;28;20464;-65
2023/07/23 05:46:26;;;;;;;9.00;3.20;;;;;;;44.19;13.11;99144.34;5073015;28;20117;-65
2023/07/23 05:48:51;;;;;;;4.82;2.50;;;;;;;42.09;14.22;99151.53;5071071;28;20445;-66
2023/07/23 05:51:17;;;;;;;5.80;2.75;;;;;;;39.84;16.19;99146.22;5071524;28;20077;-64
2023/07/23 05:53:42;;;;;;;8.13;2.80;;;;;;;38.13;17.70;99121.06;5071723;28;20126;-65
2023/07/23 05:56:08;;;;;;;7.63;2.67;;;;;;;37.85;18.59;99138.03;5072053;28;20025;-63
2023/07/23 05:58:33;;;;;;;5.15;3.10;;;;;;;37.72;18.64;99130.63;5070599;28;20437;-68
2023/07/23 06:00:59;;;;;;;4.47;2.58;;;;;;;37.03;18.84;99132.75;5071440;28;20024;-62
2023/07/23 06:03:25;;;;;;;3.45;2.28;;;;;;;35.86;20.05;99136.69;5070729;28;20025;-64
2023/07/23 06:05:50;;;;;;;6.65;2.70;;;;;;;34.82;21.32;99136.88;5071572;28;20021;-65
2023/07/23 06:08:16;;;;;;;4.55;2.30;;;;;;;34.11;22.26;99132.03;5070346;28;20429;-63
2023/07/23 06:10:41;;;;;;;7.03;2.40;;;;;;;33.53;22.96;99134.69;5071274;28;20642;-65
2023/07/23 06:13:07;;;;;;;8.73;2.55;;;;;;;33.32;23.00;99134.00;5070931;28;20085;-63
2023/07/23 06:15:32;;;;;;;9.25;2.10;;;;;;;32.55;23.66;99127.97;5071562;28;20025;-63
2023/07/23 06:17:58;;;;;;;6.30;2.35;;;;;;;31.55;24.93;99131.41;5071289;28;20024;-63
2023/07/23 06:20:24;;;;;;;5.53;1.92;;;;;;;30.64;26.66;99130.06;5071296;28;20462;-62
2023/07/23 06:22:50;;;;;;;4.82;2.03;;;;;;;29.84;27.36;99131.16;5071580;28;20364;-62
2023/07/23 06:25:15;;;;;;;3.28;2.30;;;;;;;29.12;28.85;99139.81;5071884;28;20049;-64
2023/07/23 06:27:41;;;;;;;6.00;2.40;;;;;;;28.47;29.79;99131.47;5071270;28;20082;-63
2023/07/23 06:30:07;;;;;;;3.28;2.10;;;;;;;27.82;30.92;99134.84;5071617;28;20081;-63
2023/07/23 06:32:33;;;;;;;4.35;2.20;;;;;;;27.31;31.98;99127.50;5071841;28;20028;-64
2023/07/23 06:34:58;;;;;;;5.38;2.20;;;;;;;26.71;33.11;99096.84;5072701;28;20025;-64
2023/07/23 06:37:23;;;;;;;3.13;2.20;;;;;;;26.54;33.91;99138.00;5071485;28;20445;-63
2023/07/23 06:39:49;;;;;;;6.95;2.70;;;;;;;26.19;34.73;99134.34;5071595;28;20375;-65
2023/07/23 06:42:15;;;;;;;10.25;2.80;;;;;;;25.90;35.52;99141.66;5071461;28;20025;-65
2023/07/23 06:44:41;;;;;;;5.63;2.30;;;;;;;25.79;36.05;99143.34;5071697;28;20033;-65
2023/07/23 06:47:07;;;;;;;6.63;2.90;;;;;;;25.67;36.47;99134.31;5071443;28;20043;-64
2023/07/23 06:49:32;;;;;;;15.75;8.25;;;;;;;25.61;36.74;99136.97;5071331;28;20025;-64
2023/07/23 06:51:58;;;;;;;8.07;3.58;;;;;;;25.37;37.54;99130.63;5071331;28;20102;-64
2023/07/23 06:54:23;;;;;;;4.53;3.15;;;;;;;25.08;38.60;99146.91;5073022;28;20429;-64
2023/07/23 06:56:53;;;;;;;5.35;3.13;;;;;;;24.77;39.41;99152.44;5071053;28;20419;-64
2023/07/23 06:59:20;;;;;;;8.30;3.40;;;;;;;24.37;41.79;99159.31;5071536;28;20021;-63
2023/07/23 07:01:45;;;;;;;5.63;3.00;;;;;;;24.18;41.75;99152.19;5070949;28;20137;-63
2023/07/23 07:04:11;;;;;;;5.05;2.95;;;;;;;23.94;42.93;99141.94;5070608;28;20028;-64
2023/07/23 07:06:36;;;;;;;5.53;3.00;;;;;;;23.87;43.34;99143.94;5071520;28;20047;-63
2023/07/23 07:09:02;;;;;;;10.25;3.28;;;;;;;23.76;43.89;99137.31;5071453;28;20125;-64
2023/07/23 07:11:27;;;;;;;8.90;3.00;;;;;;;23.86;43.49;99147.69;5071866;28;20475;-64
2023/07/23 07:13:53;;;;;;;7.78;3.00;;;;;;;24.00;43.85;99139.34;5077019;28;20469;-63
2023/07/23 07:16:20;;;;;;;7.20;3.15;;;;;;;24.44;42.45;99144.69;5074842;28;20107;-64
2023/07/23 07:18:45;;;;;;;8.00;3.58;;;;;;;24.93;41.02;99137.25;5074628;28;20036;-62
2023/07/23 07:21:11;;;;;;;6.80;3.88;;;;;;;25.44;40.29;99135.97;5075319;28;20360;-64
2023/07/23 07:23:36;;;;;;;9.05;4.47;;;;;;;25.58;39.97;99121.00;5074826;28;20052;-63
2023/07/23 07:26:02;;;;;;;10.75;4.03;;;;;;;25.74;39.78;99143.25;5074568;28;21380;-62
2023/07/23 07:28:29;;;;;;;5.40;3.95;;;;;;;25.78;39.95;99147.16;5074752;28;20363;-64
2023/07/23 07:30:59;;;;;;;7.72;3.83;;;;;;;25.78;40.31;99144.41;5074936;28;20040;-64
2023/07/23 07:33:25;;;;;;;9.35;3.70;;;;;;;25.70;41.31;99144.81;5074537;28;20337;-63
2023/07/23 07:35:58;;;;;;;11.43;3.75;;;;;;;25.75;41.22;99144.91;5075533;28;20121;-63
2023/07/23 07:38:26;;;;;;;4.70;3.67;;;;;;;25.63;41.47;99134.81;5075720;28;20028;-65
2023/07/23 07:40:51;;;;;;;4.68;3.47;;;;;;;25.69;42.43;99134.91;5076631;28;20028;-64
2023/07/23 07:43:18;;;;;;;6.25;3.83;;;;;;;25.75;42.61;99142.16;5074277;28;20048;-63
2023/07/23 07:45:51;;;;;;;7.50;3.75;;;;;;;25.93;41.82;99143.94;5074582;28;20024;-64
2023/07/23 07:48:20;;;;;;;9.15;4.45;;;;;;;25.97;42.47;99130.56;5073943;28;20031;-64
2023/07/23 07:51:07;;;;;;;5.78;4.10;;;;;;;26.34;40.39;99136.53;5071666;28;20034;-64
2023/07/23 07:53:33;;;;;;;4.57;3.45;;;;;;;26.82;39.49;99138.22;5087637;28;20072;-66
2023/07/23 07:56:00;;;;;;;6.32;3.92;;;;;;;27.78;37.39;99126.25;5074084;28;20361;-65
2023/07/23 07:58:27;;;;;;;8.23;3.90;;;;;;;28.32;36.22;99113.69;5073337;28;20415;-67
2023/07/23 08:00:54;;;;;;;3.83;3.35;;;;;;;28.67;34.84;99132.78;5073910;28;20039;-67
2023/07/23 08:03:22;;;;;;;6.35;3.47;;;;;;;28.88;34.75;99131.91;5074090;28;20032;-63
2023/07/23 08:05:48;;;;;;;5.38;3.45;;;;;;;29.07;34.29;99132.31;5072463;28;20036;-63
2023/07/23 08:08:17;;;;;;;4.93;3.53;;;;;;;29.36;33.54;99122.88;5070856;28;20482;-62
2023/07/23 08:10:45;;;;;;;5.00;3.30;;;;;;;29.77;32.39;99119.56;5073628;28;20045;-56
2023/07/23 08:13:14;;;;;;;9.77;3.40;;;;;;;30.15;31.98;99122.22;5073536;28;20448;-59
2023/07/23 08:15:40;;;;;;;10.45;3.47;;;;;;;29.89;31.03;99131.19;5069633;28;20078;-58
2023/07/23 08:18:06;;;;;;;4.70;3.20;;;;;;;29.44;31.42;99140.91;5073840;28;20033;-62
2023/07/23 08:20:34;;;;;;;5.07;2.80;;;;;;;28.57;32.14;99101.28;5073293;28;20017;-62
2023/07/23 08:23:01;;;;;;;9.95;3.30;;;;;;;28.28;34.85;99139.28;5072621;28;20025;-61
2023/07/23 08:25:30;;;;;;;8.57;3.53;;;;;;;28.19;35.06;99136.13;5073544;28;20031;-61
2023/07/23 08:28:00;;;;;;;6.38;3.10;;;;;;;28.67;33.64;99141.84;5073901;28;20040;-61
2023/07/23 08:30:27;;;;;;;5.60;2.85;;;;;;;29.26;31.72;99144.84;5070371;28;20036;-61
2023/07/23 08:32:57;;;;;;;4.07;2.50;;;;;;;29.78;30.94;99141.38;5073578;28;20033;-62
2023/07/23 08:35:24;;;;;;;3.63;2.58;;;;;;;30.03;30.18;99125.19;5073655;28;20024;-62
2023/07/23 08:37:50;;;;;;;4.75;2.92;;;;;;;30.20;30.30;99120.31;5073657;28;20029;-61
2023/07/23 08:40:16;;;;;;;4.38;1.95;;;;;;;30.27;29.46;99122.81;5073988;28;20031;-60
2023/07/23 08:42:48;;;;;;;4.55;1.83;;;;;;;30.36;29.65;99129.44;5072643;28;20119;-60
2023/07/23 08:45:23;;;;;;;5.25;2.20;;;;;;;30.44;29.18;99125.31;5074059;28;20043;-60
2023/07/23 08:47:54;;;;;;;4.65;2.00;;;;;;;30.26;29.24;99123.88;5073635;28;20033;-60
2023/07/23 08:50:20;;;;;;;3.75;2.05;;;;;;;30.05;29.51;99109.19;5073953;28;20046;-61
2023/07/23 08:52:46;;;;;;;4.47;1.90;;;;;;;29.98;29.44;99103.09;5073869;28;20048;-59
2023/07/23 08:55:11;;;;;;;2.13;1.92;;;;;;;29.81;30.27;99104.13;5073564;28;20119;-60
2023/07/23 08:57:38;;;;;;;4.57;2.00;;;;;;;29.55;30.22;99076.41;5072590;28;20298;-60
2023/07/23 09:00:06;;;;;;;2.30;2.10;;;;;;;29.55;30.28;99108.69;5073664;28;20063;-61
2023/07/23 09:02:36;;;;;;;3.50;3.20;;;;;;;29.24;30.80;99112.06;5073380;28;20024;-61
2023/07/23 09:05:02;;;;;;;2.67;2.35;;;;;;;28.87;32.04;99104.59;5073334;28;20387;-60
2023/07/23 09:07:30;;;;;;;4.25;2.15;;;;;;;28.44;32.42;99108.03;5073535;28;20028;-60
2023/07/23 09:09:55;;;;;;;3.88;2.03;;;;;;;27.83;33.27;99102.66;5072602;28;20053;-61
2023/07/23 09:12:21;;;;;;;4.35;2.28;;;;;;;27.12;35.06;99106.88;5073391;28;20036;-61
2023/07/23 09:14:46;;;;;;;3.65;2.55;;;;;;;26.51;36.28;99102.81;5073404;28;20029;-61
2023/07/23 09:17:20;;;;;;;5.15;2.30;;;;;;;26.19;37.68;99115.13;5072623;28;20077;-61
2023/07/23 09:19:46;;;;;;;5.00;3.92;;;;;;;25.84;40.60;99124.28;5073527;28;20036;-61
2023/07/23 09:22:11;;;;;;;5.63;3.13;;;;;;;25.46;42.23;99120.13;5072981;28;20086;-61
2023/07/23 09:24:36;;;;;;;4.70;2.95;;;;;;;25.04;43.98;99118.34;5072439;28;20036;-62
2023/07/23 09:27:02;;;;;;;5.68;2.97;;;;;;;24.55;45.68;99129.38;5073455;28;20063;-61
2023/07/23 09:29:35;;;;;;;3.88;2.78;;;;;;;24.22;46.80;99132.38;5072756;28;20040;-61
2023/07/23 09:32:01;;;;;;;5.60;3.63;;;;;;;23.59;49.52;99128.88;5072854;28;20119;-60
2023/07/23 09:34:26;;;;;;;9.10;4.00;;;;;;;23.23;51.01;99146.84;5072843;28;20032;-61
2023/07/23 09:36:55;;;;;;;6.38;4.28;;;;;;;22.97;52.24;99142.44;5072763;28;20036;-62
2023/07/23 09:39:27;;;;;;;6.10;4.28;;;;;;;22.84;53.86;99136.06;5071147;28;20032;-62
2023/07/23 09:42:01;;;;;;;4.82;3.92;;;;;;;22.67;53.84;99143.09;5072837;28;20032;-64
2023/07/23 09:44:26;;;;;;;4.80;3.60;;;;;;;22.69;54.07;99117.28;5072819;28;20024;-61
2023/07/23 09:46:52;;;;;;;5.38;4.55;;;;;;;23.12;54.31;99117.53;5072910;28;20456;-61
2023/07/23 09:49:24;;;;;;;6.25;3.85;;;;;;;23.63;52.42;99124.66;5072966;28;20028;-60
2023/07/23 09:51:51;;;;;;;6.50;3.70;;;;;;;23.91;50.54;99127.88;5073169;28;20111;-61
2023/07/23 09:54:17;;;;;;;6.30;4.05;;;;;;;24.06;49.36;99116.59;5072535;28;20024;-60
2023/07/23 09:56:45;;;;;;;4.93;3.60;;;;;;;24.08;49.28;99107.09;5072517;28;20137;-61
2023/07/23 09:59:11;;;;;;;5.50;3.45;;;;;;;24.11;48.12;99114.00;5071960;28;20506;-61
2023/07/23 10:01:37;;;;;;;4.93;3.92;;;;;;;24.02;49.14;99118.97;5072429;28;20029;-61
2023/07/23 10:04:04;;;;;;;5.43;4.10;;;;;;;23.81;48.43;99125.69;5072647;28;20097;-61
2023/07/23 10:06:30;;;;;;;4.25;3.63;;;;;;;23.57;49.40;99100.94;5072851;28;20368;-61
2023/07/23 10:08:56;;;;;;;4.53;3.83;;;;;;;23.42;48.55;99084.13;5072180;28;20020;-60
2023/07/23 10:11:22;;;;;;;4.68;3.33;;;;;;;23.71;47.07;99117.19;5072385;28;20041;-61
2023/07/23 10:13:48;;;;;;;3.55;3.25;;;;;;;23.58;46.83;99077.22;5072139;28;20036;-60
2023/07/23 10:16:27;;;;;;;3.67;3.38;;;;;;;24.01;46.28;99105.47;5072525;28;20456;-60
2023/07/23 10:18:56;;;;;;;4.03;3.60;;;;;;;24.09;46.01;99110.66;5072122;28;20368;-61
2023/07/23 10:21:22;;;;;;;4.35;3.05;;;;;;;24.12;45.31;99104.75;5072358;28;20032;-61
2023/07/23 10:23:56;;;;;;;5.30;3.10;;;;;;;24.44;45.99;99112.72;5072383;28;20032;-60
2023/07/23 10:26:46;;;;;;;3.65;3.35;;;;;;;24.69;45.29;99106.25;5071992;28;20036;-61
2023/07/23 10:29:18;;;;;;;5.20;3.45;;;;;;;24.94;44.52;99107.97;5071576;28;20053;-61
2023/07/23 10:31:44;;;;;;;4.00;3.45;;;;;;;25.15;43.65;99094.78;5072268;28;20036;-61
2023/07/23 10:34:22;;;;;;;3.45;2.97;;;;;;;25.67;42.30;99095.94;5071740;28;20192;-62
2023/07/23 10:37:19;;;;;;;3.42;3.13;;;;;;;26.05;40.98;99102.78;5071894;28;20367;-61
2023/07/23 10:39:50;;;;;;;7.25;3.58;;;;;;;26.31;41.04;99106.03;5071697;28;20349;-59
2023/07/23 10:42:27;;;;;;;4.20;2.88;;;;;;;26.49;39.76;99108.53;5071816;28;20036;-60
2023/07/23 10:45:15;;;;;;;3.97;3.17;;;;;;;26.31;39.25;99111.53;5074920;28;20032;-61
2023/07/23 10:47:47;;;;;;;3.08;2.80;;;;;;;25.83;40.14;99097.94;5075956;28;20025;-61
2023/07/23 10:50:14;;;;;;;3.47;3.17;;;;;;;25.53;41.22;99109.91;5076248;28;20028;-60
2023/07/23 10:52:43;;;;;;;3.63;2.85;;;;;;;25.47;41.50;99106.22;5075174;28;20107;-61
2023/07/23 10:55:09;;;;;;;4.10;3.20;;;;;;;25.21;41.49;99086.44;5075816;28;20029;-62
2023/07/23 10:57:38;;;;;;;3.85;3.20;;;;;;;25.31;41.56;99109.66;5075402;28;20035;-61
2023/07/23 11:00:18;;;;;;;6.95;3.20;;;;;;;25.31;41.73;99115.94;5075622;28;20060;-61
2023/07/23 11:02:49;;;;;;;5.18;4.00;;;;;;;25.19;42.65;99106.91;5075654;28;20317;-61
2023/07/23 11:05:15;;;;;;;4.93;3.00;;;;;;;25.19;42.00;99098.69;5075888;28;20399;-61
2023/07/23 11:07:41;;;;;;;3.50;3.17;;;;;;;25.29;41.39;99101.66;5075584;28;20046;-61
2023/07/23 11:10:20;;;;;;;3.92;3.40;;;;;;;25.43;41.40;99099.50;5074284;28;20056;-62
2023/07/23 11:12:46;;;;;;;3.83;3.38;;;;;;;25.24;41.62;99112.50;5075109;28;20048;-62
2023/07/23 11:15:15;;;;;;;4.13;3.42;;;;;;;25.19;41.58;99085.81;5075457;28;20029;-60
2023/07/23 11:17:41;;;;;;;3.17;2.88;;;;;;;25.15;41.91;99079.16;5075437;28;20035;-59
2023/07/23 11:20:07;;;;;;;4.32;3.63;;;;;;;25.01;41.69;99088.69;5075457;28;20107;-61
2023/07/23 11:22:32;;;;;;;4.13;2.95;;;;;;;24.79;42.22;99087.34;5075645;28;20024;-62
2023/07/23 11:24:58;;;;;;;4.65;4.25;;;;;;;24.56;43.19;99084.53;5074467;28;20036;-61
2023/07/23 11:27:23;;;;;;;3.90;3.55;;;;;;;24.30;42.99;99089.34;5074943;28;20082;-62
2023/07/23 11:29:49;;;;;;;3.58;3.28;;;;;;;24.09;44.39;99080.56;5075563;28;20040;-62